createdAt,value
2019-05-03T00:01:42.129Z,99.90
2019-05-03T00:04:13.105Z,99.90
2019-05-03T00:06:42.689Z,99.90
2019-05-03T00:09:13.440Z,99.90
2019-05-03T00:11:42.673Z,99.90
2019-05-03T00:14:12.466Z,99.90
2019-05-03T00:16:45.871Z,99.90
2019-05-03T00:19:14.943Z,99.90
2019-05-03T00:21:44.136Z,99.90
2019-05-03T00:24:13.208Z,99.90
2019-05-03T00:26:42.360Z,99.90
2019-05-03T00:29:12.744Z,99.90
2019-05-03T00:31:42.373Z,99.90
2019-05-03T00:34:13.064Z,99.90
2019-05-03T00:36:43.971Z,99.90
2019-05-03T00:39:17.271Z,99.90
2019-05-03T00:41:46.344Z,99.90
2019-05-03T00:44:16.399Z,99.90
2019-05-03T00:46:45.281Z,99.90
2019-05-03T00:49:14.704Z,99.90
2019-05-03T00:51:44.112Z,99.90
2019-05-03T00:54:13.256Z,99.90
2019-05-03T00:56:44.421Z,99.90
2019-05-03T00:59:12.992Z,99.90
2019-05-03T01:01:42.522Z,99.90
2019-05-03T01:04:11.959Z,96.50
2019-05-03T01:06:42.348Z,95.40
2019-05-03T01:09:16.127Z,93.50
2019-05-03T01:11:45.223Z,94.20
2019-05-03T01:14:16.104Z,94.70
2019-05-03T01:16:45.505Z,93.80
2019-05-03T01:19:14.551Z,95.40
2019-05-03T01:21:43.825Z,96.20
2019-05-03T01:24:13.065Z,96.30
2019-05-03T01:26:42.247Z,97.10
2019-05-03T01:29:12.158Z,98.20
2019-05-03T01:31:42.140Z,99.00
2019-05-03T01:34:12.535Z,99.90
2019-05-03T01:36:42.729Z,99.90
2019-05-03T01:39:12.775Z,99.90
2019-05-03T01:41:41.904Z,99.90
2019-05-03T01:44:12.494Z,99.90
2019-05-03T01:46:42.206Z,99.90
2019-05-03T01:49:13.087Z,99.90
2019-05-03T01:51:58.833Z,99.90
2019-05-03T01:54:28.031Z,99.90
2019-05-03T01:56:59.200Z,99.90
2019-05-03T01:59:27.665Z,99.90
2019-05-03T02:01:58.336Z,99.90
2019-05-03T02:04:44.290Z,99.90
2019-05-03T02:07:13.489Z,99.90
2019-05-03T02:09:43.631Z,99.90
2019-05-03T02:12:13.161Z,99.90
2019-05-03T02:14:42.504Z,99.90
2019-05-03T02:17:12.390Z,99.90
2019-05-03T02:19:42.245Z,99.90
2019-05-03T02:22:12.044Z,99.90
2019-05-03T02:24:42.241Z,99.90
2019-05-03T02:27:12.775Z,99.90
2019-05-03T02:29:42.281Z,99.90
2019-05-03T02:32:13.225Z,99.90
2019-05-03T02:34:44.038Z,99.90
2019-05-03T02:37:13.860Z,99.90
2019-05-03T02:39:44.536Z,99.90
2019-05-03T02:42:16.051Z,99.90
2019-05-03T02:44:46.221Z,99.90
2019-05-03T02:47:17.160Z,99.90
2019-05-03T02:49:47.687Z,99.90
2019-05-03T02:52:36.553Z,99.90
2019-05-03T02:55:08.551Z,99.90
2019-05-03T02:57:37.618Z,99.90
2019-05-03T03:00:08.696Z,99.90
2019-05-03T03:02:39.200Z,99.90
2019-05-03T03:05:08.895Z,99.90
2019-05-03T03:07:38.455Z,99.90
2019-05-03T03:10:10.448Z,99.90
2019-05-03T03:12:41.824Z,99.90
2019-05-03T03:15:11.008Z,99.90
2019-05-03T03:17:41.583Z,99.90
2019-05-03T03:20:10.984Z,99.90
2019-05-03T03:22:45.535Z,99.90
2019-05-03T03:25:17.655Z,99.90
2019-05-03T03:27:48.337Z,99.90
2019-05-03T03:30:40.007Z,99.90
2019-05-03T03:33:12.032Z,99.90
2019-05-03T03:35:42.560Z,99.90
2019-05-03T03:38:11.554Z,99.90
2019-05-03T03:40:40.672Z,99.90
2019-05-03T03:43:11.791Z,99.90
2019-05-03T03:45:45.242Z,99.90
2019-05-03T03:48:16.080Z,99.90
2019-05-03T03:50:48.129Z,99.90
2019-05-03T03:53:18.008Z,99.90
2019-05-03T03:55:48.823Z,99.90
2019-05-03T03:58:22.809Z,99.90
2019-05-03T04:00:48.839Z,99.90
2019-05-03T04:03:18.202Z,99.90
2019-05-03T04:05:47.498Z,99.90
2019-05-03T04:08:16.686Z,99.90
2019-05-03T04:10:46.343Z,99.90
2019-05-03T04:13:18.009Z,99.90
2019-05-03T04:16:05.590Z,99.90
2019-05-03T04:18:48.248Z,99.90
2019-05-03T04:21:17.166Z,99.90
2019-05-03T04:23:46.248Z,99.90
2019-05-03T04:26:16.269Z,99.90
2019-05-03T04:28:46.010Z,99.90
2019-05-03T04:31:15.361Z,99.90
2019-05-03T04:33:45.196Z,99.90
2019-05-03T04:36:16.016Z,99.90
2019-05-03T04:38:45.512Z,99.90
2019-05-03T04:41:15.882Z,99.90
2019-05-03T04:43:46.717Z,99.90
2019-05-03T04:46:18.535Z,99.90
2019-05-03T04:48:47.505Z,99.90
2019-05-03T04:51:16.791Z,99.90
2019-05-03T04:53:47.671Z,99.90
2019-05-03T04:56:17.328Z,99.90
2019-05-03T04:58:46.632Z,99.90
2019-05-03T05:01:15.970Z,99.90
2019-05-03T05:03:45.768Z,99.90
2019-05-03T05:06:15.377Z,99.90
2019-05-03T05:08:46.120Z,99.90
2019-05-03T05:11:15.715Z,99.90
2019-05-03T05:13:45.829Z,99.90
2019-05-03T05:16:16.081Z,99.90
2019-05-03T05:18:47.152Z,99.90
2019-05-03T05:21:27.351Z,99.90
2019-05-03T05:23:57.888Z,99.90
2019-05-03T05:26:31.794Z,99.90
2019-05-03T05:29:02.708Z,99.90
2019-05-03T05:31:31.824Z,99.90
2019-05-03T05:34:00.928Z,99.90
2019-05-03T05:36:29.831Z,99.90
2019-05-03T05:38:58.904Z,99.90
2019-05-03T05:41:27.936Z,99.90
2019-05-03T05:43:56.935Z,99.90
2019-05-03T05:46:27.480Z,99.90
2019-05-03T05:48:56.879Z,99.90
2019-05-03T05:51:25.865Z,99.90
2019-05-03T05:53:54.984Z,99.90
2019-05-03T05:56:25.703Z,99.90
2019-05-03T05:59:14.970Z,99.90
2019-05-03T06:01:45.937Z,99.90
2019-05-03T06:04:15.412Z,99.90
2019-05-03T06:06:49.495Z,99.90
2019-05-03T06:09:35.319Z,99.90
2019-05-03T06:12:08.121Z,99.90
2019-05-03T06:14:45.286Z,99.90
2019-05-03T06:17:19.249Z,99.90
2019-05-03T06:19:52.848Z,99.90
2019-05-03T06:22:25.524Z,99.90
2019-05-03T06:24:55.753Z,99.90
2019-05-03T06:27:26.583Z,99.90
2019-05-03T06:29:57.394Z,99.90
2019-05-03T06:32:28.503Z,99.90
2019-05-03T06:34:57.543Z,99.90
2019-05-03T06:37:35.438Z,99.90
2019-05-03T06:40:06.737Z,99.90
2019-05-03T06:42:36.248Z,99.90
2019-05-03T06:45:10.495Z,99.90
2019-05-03T06:47:40.414Z,99.90
2019-05-03T06:50:09.496Z,99.90
2019-05-03T06:52:39.171Z,99.90
2019-05-03T06:55:10.513Z,99.90
2019-05-03T06:57:45.631Z,99.90
2019-05-03T07:00:29.825Z,99.90
2019-05-03T07:03:06.768Z,99.90
2019-05-03T07:05:49.809Z,99.90
2019-05-03T07:08:37.143Z,99.90
2019-05-03T07:11:07.999Z,99.90
2019-05-03T07:13:37.085Z,99.90
2019-05-03T07:16:06.287Z,99.90
2019-05-03T07:18:35.316Z,99.90
2019-05-03T07:21:04.836Z,99.90
2019-05-03T07:23:35.015Z,99.90
2019-05-03T07:26:05.420Z,99.90
2019-05-03T07:28:46.292Z,99.90
2019-05-03T07:31:05.383Z,99.90
2019-05-03T07:33:35.633Z,99.90
2019-05-03T07:36:06.016Z,99.90
2019-05-03T07:38:35.314Z,99.90
2019-05-03T07:41:05.247Z,99.90
2019-05-03T07:43:36.091Z,99.90
2019-05-03T07:46:05.738Z,99.90
2019-05-03T07:48:35.331Z,99.90
2019-05-03T07:51:05.451Z,99.90
2019-05-03T07:53:34.945Z,99.90
2019-05-03T07:56:12.080Z,99.90
2019-05-03T07:58:42.585Z,99.90
2019-05-03T08:01:15.906Z,99.90
2019-05-03T08:03:45.128Z,99.90
2019-05-03T08:06:14.910Z,99.90
2019-05-03T08:08:45.443Z,99.90
2019-05-03T08:11:14.823Z,99.90
2019-05-03T08:13:44.636Z,99.90
2019-05-03T08:16:15.934Z,99.90
2019-05-03T08:18:45.710Z,99.90
2019-05-03T08:21:14.997Z,99.30
2019-05-03T08:23:45.273Z,98.60
2019-05-03T08:26:15.407Z,99.90
2019-05-03T08:28:44.611Z,98.10
2019-05-03T08:31:30.128Z,94.10
2019-05-03T08:34:15.483Z,95.30
2019-05-03T08:37:01.501Z,93.60
2019-05-03T08:39:30.832Z,96.00
2019-05-03T08:42:04.831Z,97.00
2019-05-03T08:44:35.360Z,94.50
2019-05-03T08:47:05.208Z,94.60
2019-05-03T08:49:34.903Z,96.50
2019-05-03T08:52:05.415Z,96.00
2019-05-03T08:54:34.905Z,94.30
2019-05-03T08:57:06.009Z,89.90
2019-05-03T08:59:35.798Z,94.60
2019-05-03T09:02:13.869Z,92.20
2019-05-03T09:04:38.538Z,94.60
2019-05-03T09:07:07.971Z,94.00
2019-05-03T09:09:38.538Z,94.00
2019-05-03T09:12:07.648Z,95.80
2019-05-03T09:14:42.627Z,95.00
2019-05-03T09:17:07.288Z,97.00
2019-05-03T09:19:36.391Z,94.70
2019-05-03T09:22:06.202Z,97.80
2019-05-03T09:24:35.344Z,90.80
2019-05-03T09:27:05.226Z,89.70
2019-05-03T09:29:43.067Z,93.50
2019-05-03T09:32:05.688Z,92.80
2019-05-03T09:34:35.111Z,93.40
2019-05-03T09:37:04.899Z,91.70
2019-05-03T09:39:35.461Z,88.40
2019-05-03T09:42:04.896Z,90.90
2019-05-03T09:44:35.004Z,92.90
2019-05-03T09:47:05.599Z,91.50
2019-05-03T09:49:34.950Z,95.90
2019-05-03T09:52:08.094Z,95.20
2019-05-03T09:54:36.753Z,96.10
2019-05-03T09:57:05.985Z,94.30
2019-05-03T09:59:35.172Z,96.30
2019-05-03T10:02:04.966Z,95.20
2019-05-03T10:04:36.295Z,99.90
2019-05-03T10:07:05.287Z,96.20
2019-05-03T10:09:35.336Z,99.90
2019-05-03T10:12:08.008Z,99.90
2019-05-03T10:14:37.119Z,99.90
2019-05-03T10:17:10.799Z,99.90
2019-05-03T10:19:40.460Z,99.90
2019-05-03T10:22:10.367Z,99.90
2019-05-03T10:24:39.510Z,99.90
2019-05-03T10:27:08.519Z,99.90
2019-05-03T10:29:37.903Z,99.90
2019-05-03T10:32:08.551Z,99.90
2019-05-03T10:34:38.160Z,99.90
2019-05-03T10:37:08.975Z,99.90
2019-05-03T10:39:38.012Z,99.90
2019-05-03T10:42:07.639Z,99.90
2019-05-03T10:44:36.769Z,99.90
2019-05-03T10:47:06.276Z,99.90
2019-05-03T10:49:35.351Z,99.90
2019-05-03T10:52:06.592Z,99.90
2019-05-03T10:54:36.024Z,99.90
2019-05-03T10:57:06.888Z,99.90
2019-05-03T10:59:36.233Z,99.90
2019-05-03T11:02:10.056Z,99.90
2019-05-03T11:04:39.170Z,99.90
2019-05-03T11:07:08.327Z,99.90
2019-05-03T11:09:48.874Z,99.90
2019-05-03T11:12:08.191Z,99.90
2019-05-03T11:14:37.496Z,99.90
2019-05-03T11:17:07.017Z,95.80
2019-05-03T11:19:36.096Z,95.00
2019-05-03T11:22:05.783Z,93.40
2019-05-03T11:24:35.115Z,96.20
2019-05-03T11:27:05.904Z,91.40
2019-05-03T11:29:35.568Z,93.00
2019-05-03T11:32:15.031Z,93.30
2019-05-03T11:34:45.807Z,92.00
2019-05-03T11:37:34.283Z,91.10
2019-05-03T11:40:05.127Z,90.80
2019-05-03T11:42:35.330Z,87.70
2019-05-03T11:45:06.866Z,85.90
2019-05-03T11:47:35.824Z,84.30
2019-05-03T11:50:06.951Z,81.90
2019-05-03T11:52:36.128Z,77.00
2019-05-03T11:55:11.269Z,76.50
2019-05-03T11:57:42.184Z,79.00
2019-05-03T12:00:14.703Z,76.10
2019-05-03T12:02:45.336Z,76.70
2019-05-03T12:05:16.113Z,75.60
2019-05-03T12:07:45.603Z,78.50
2019-05-03T12:10:32.707Z,78.80
2019-05-03T12:12:55.307Z,76.30
2019-05-03T12:15:24.480Z,74.10
2019-05-03T12:17:58.566Z,76.20
2019-05-03T12:20:32.412Z,77.70
2019-05-03T12:23:02.433Z,76.20
2019-05-03T12:25:35.612Z,78.30
2019-05-03T12:28:05.859Z,81.40
2019-05-03T12:30:35.538Z,82.30
2019-05-03T12:33:05.966Z,84.40
2019-05-03T12:35:35.725Z,90.20
2019-05-03T12:38:05.575Z,82.70
2019-05-03T12:40:34.981Z,88.30
2019-05-03T12:43:06.036Z,84.60
2019-05-03T12:45:35.540Z,89.30
2019-05-03T12:48:05.171Z,78.60
2019-05-03T12:50:34.836Z,84.90
2019-05-03T12:53:04.855Z,81.60
2019-05-03T12:55:35.596Z,85.50
2019-05-03T12:58:06.246Z,77.30
2019-05-03T13:00:40.272Z,79.60
2019-05-03T13:03:15.239Z,87.00
2019-05-03T13:05:44.942Z,90.30
2019-05-03T13:08:38.024Z,93.60
2019-05-03T13:11:09.895Z,91.90
2019-05-03T13:13:39.217Z,84.60
2019-05-03T13:16:10.802Z,86.60
2019-05-03T13:18:39.991Z,90.30
2019-05-03T13:21:09.608Z,93.90
2019-05-03T13:23:38.624Z,94.40
2019-05-03T13:26:08.007Z,95.70
2019-05-03T13:28:37.536Z,95.60
2019-05-03T13:31:06.723Z,91.40
2019-05-03T13:33:35.896Z,90.50
2019-05-03T13:36:07.767Z,85.40
2019-05-03T13:38:37.226Z,80.70
2019-05-03T13:41:06.799Z,83.70
2019-05-03T13:43:36.479Z,88.80
2019-05-03T13:46:05.476Z,84.40
2019-05-03T13:48:45.596Z,84.70
2019-05-03T13:51:08.976Z,82.60
2019-05-03T13:53:37.993Z,83.00
2019-05-03T13:56:07.113Z,89.50
2019-05-03T13:58:36.209Z,91.90
2019-05-03T14:01:06.977Z,93.30
2019-05-03T14:03:36.240Z,92.30
2019-05-03T14:06:08.661Z,89.40
2019-05-03T14:08:36.236Z,86.70
2019-05-03T14:11:05.623Z,84.90
2019-05-03T14:13:35.527Z,81.80
2019-05-03T14:16:06.976Z,87.40
2019-05-03T14:18:36.415Z,90.00
2019-05-03T14:21:07.184Z,89.00
2019-05-03T14:23:53.789Z,92.00
2019-05-03T14:26:24.660Z,89.40
2019-05-03T14:29:00.522Z,87.90
2019-05-03T14:31:29.751Z,89.80
2019-05-03T14:33:59.336Z,91.70
2019-05-03T14:36:28.728Z,92.60
2019-05-03T14:38:58.240Z,93.60
2019-05-03T14:41:27.946Z,95.60
2019-05-03T14:43:57.217Z,93.80
2019-05-03T14:46:32.869Z,96.70
2019-05-03T14:48:57.520Z,99.90
2019-05-03T14:51:26.753Z,99.90
2019-05-03T14:53:57.031Z,99.90
2019-05-03T14:56:27.984Z,99.90
2019-05-03T14:59:02.353Z,99.90
2019-05-03T15:01:35.642Z,99.90
2019-05-03T15:04:05.841Z,99.90
2019-05-03T15:06:35.746Z,99.90
2019-05-03T15:09:07.327Z,99.30
2019-05-03T15:11:36.920Z,99.90
2019-05-03T15:14:06.524Z,99.90
2019-05-03T15:16:35.664Z,99.20
2019-05-03T15:19:05.445Z,97.20
2019-05-03T15:21:35.463Z,98.60
2019-05-03T15:24:05.411Z,99.90
2019-05-03T15:26:35.758Z,99.90
2019-05-03T15:29:05.360Z,99.90
2019-05-03T15:31:37.620Z,99.90
2019-05-03T15:34:06.880Z,99.90
2019-05-03T15:36:36.257Z,99.90
2019-05-03T15:39:07.063Z,99.90
2019-05-03T15:41:37.128Z,99.90
2019-05-03T15:44:08.352Z,99.90
2019-05-03T15:46:39.095Z,99.90
2019-05-03T15:49:08.383Z,99.90
2019-05-03T15:51:37.699Z,99.90
2019-05-03T15:54:06.920Z,99.90
2019-05-03T15:56:36.217Z,99.90
2019-05-03T15:59:05.513Z,99.90
2019-05-03T16:01:35.365Z,99.90
2019-05-03T16:04:04.897Z,99.90
2019-05-03T16:06:33.976Z,99.90
2019-05-03T16:09:04.584Z,99.90
2019-05-03T16:11:34.401Z,99.90
2019-05-03T16:14:04.540Z,99.90
2019-05-03T16:16:35.351Z,99.90
2019-05-03T16:19:05.446Z,99.90
2019-05-03T16:21:36.800Z,99.90
2019-05-03T16:24:06.259Z,99.90
2019-05-03T16:26:36.832Z,99.90
2019-05-03T16:29:10.504Z,99.90
2019-05-03T16:31:40.722Z,99.90
2019-05-03T16:34:10.063Z,99.90
2019-05-03T16:36:39.505Z,99.90
2019-05-03T16:39:08.655Z,99.90
2019-05-03T16:41:39.472Z,99.90
2019-05-03T16:44:08.577Z,99.90
2019-05-03T16:46:37.918Z,99.90
2019-05-03T16:49:07.384Z,99.90
2019-05-03T16:51:36.473Z,99.90
2019-05-03T16:54:05.800Z,99.90
2019-05-03T16:56:35.261Z,99.90
2019-05-03T16:59:05.792Z,99.90
2019-05-03T17:01:35.297Z,99.90
2019-05-03T17:04:25.066Z,99.90
2019-05-03T17:07:12.368Z,99.90
2019-05-03T17:09:46.004Z,99.90
2019-05-03T17:12:20.039Z,99.90
2019-05-03T17:14:49.503Z,99.90
2019-05-03T17:17:21.291Z,99.90
2019-05-03T17:19:50.353Z,99.90
2019-05-03T17:22:19.519Z,99.90
2019-05-03T17:24:48.624Z,99.90
2019-05-03T17:27:17.847Z,99.90
2019-05-03T17:29:48.577Z,99.90
2019-05-03T17:32:17.937Z,99.90
2019-05-03T17:34:47.225Z,99.90
2019-05-03T17:37:16.855Z,99.90
2019-05-03T17:39:54.742Z,99.90
2019-05-03T17:42:25.617Z,99.90
2019-05-03T17:44:55.280Z,99.90
2019-05-03T17:47:25.597Z,99.90
2019-05-03T17:49:55.170Z,99.90
2019-05-03T17:52:35.216Z,99.90
2019-05-03T17:55:07.376Z,99.90
2019-05-03T17:57:41.664Z,99.90
2019-05-03T18:00:25.057Z,99.90
2019-05-03T18:02:55.457Z,99.90
2019-05-03T18:05:34.411Z,99.90
2019-05-03T18:08:20.632Z,99.90
2019-05-03T18:10:51.312Z,99.90
2019-05-03T18:13:20.904Z,99.90
2019-05-03T18:15:50.640Z,99.90
2019-05-03T18:18:19.919Z,99.90
2019-05-03T18:20:49.256Z,99.90
2019-05-03T18:23:21.296Z,99.90
2019-05-03T18:25:50.432Z,99.90
2019-05-03T18:28:20.113Z,99.90
2019-05-03T18:30:49.049Z,99.90
2019-05-03T18:33:18.119Z,99.90
2019-05-03T18:35:47.536Z,99.90
2019-05-03T18:38:17.200Z,99.90
2019-05-03T18:40:47.155Z,99.90
2019-05-03T18:43:20.543Z,99.90
2019-05-03T18:45:54.682Z,99.90
2019-05-03T18:48:26.512Z,99.90
2019-05-03T18:50:56.033Z,99.90
2019-05-03T18:53:25.360Z,99.90
2019-05-03T18:55:55.217Z,99.90
2019-05-03T18:58:25.975Z,99.90
2019-05-03T19:00:55.752Z,99.90
2019-05-03T19:03:25.464Z,99.90
2019-05-03T19:05:57.248Z,99.90
2019-05-03T19:08:44.719Z,99.90
2019-05-03T19:11:19.176Z,99.90
2019-05-03T19:13:50.224Z,99.90
2019-05-03T19:16:21.600Z,99.90
2019-05-03T19:18:51.344Z,99.90
2019-05-03T19:21:21.185Z,99.90
2019-05-03T19:23:51.024Z,99.90
2019-05-03T19:26:21.630Z,99.90
2019-05-03T19:28:50.799Z,99.90
2019-05-03T19:31:20.376Z,99.90
2019-05-03T19:33:49.905Z,99.90
2019-05-03T19:36:19.217Z,99.90
2019-05-03T19:38:48.600Z,99.90
2019-05-03T19:41:18.039Z,99.90
2019-05-03T19:43:47.777Z,99.90
2019-05-03T19:46:20.400Z,99.90
2019-05-03T19:48:49.522Z,99.90
2019-05-03T19:51:18.848Z,99.90
2019-05-03T19:53:49.880Z,99.90
2019-05-03T19:56:19.957Z,99.90
2019-05-03T19:58:50.051Z,99.90
2019-05-03T20:01:27.040Z,99.90
2019-05-03T20:03:58.114Z,99.90
2019-05-03T20:06:45.633Z,99.90
2019-05-03T20:09:16.887Z,99.90
2019-05-03T20:11:46.503Z,99.90
2019-05-03T20:14:21.712Z,99.90
2019-05-03T20:16:50.801Z,99.90
2019-05-03T20:19:21.344Z,99.90
2019-05-03T20:21:51.360Z,99.90
2019-05-03T20:24:20.993Z,99.90
2019-05-03T20:26:50.377Z,99.90
2019-05-03T20:29:21.384Z,99.90
2019-05-03T20:31:50.842Z,99.90
2019-05-03T20:34:20.432Z,99.90
2019-05-03T20:36:52.240Z,99.90
2019-05-03T20:39:21.559Z,99.90
2019-05-03T20:41:51.255Z,99.90
2019-05-03T20:44:28.872Z,99.90
2019-05-03T20:46:59.768Z,99.90
2019-05-03T20:49:29.176Z,99.90
2019-05-03T20:51:58.897Z,99.90
2019-05-03T20:54:28.193Z,99.90
2019-05-03T20:56:58.225Z,99.90
2019-05-03T20:59:41.938Z,99.90
2019-05-03T21:02:01.569Z,99.90
2019-05-03T21:04:30.759Z,99.90
2019-05-03T21:07:00.282Z,99.90
2019-05-03T21:09:29.985Z,99.90
2019-05-03T21:11:59.385Z,99.90
2019-05-03T21:14:29.225Z,99.90
2019-05-03T21:17:04.572Z,99.90
2019-05-03T21:19:41.687Z,99.90
2019-05-03T21:22:14.370Z,99.90
2019-05-03T21:24:55.361Z,99.90
2019-05-03T21:27:27.032Z,99.90
2019-05-03T21:29:56.200Z,99.90
2019-05-03T21:32:26.345Z,99.90
2019-05-03T21:34:55.945Z,99.90
2019-05-03T21:37:25.360Z,99.90
2019-05-03T21:39:55.624Z,99.90
2019-05-03T21:42:24.882Z,99.90
2019-05-03T21:44:55.929Z,99.90
2019-05-03T21:47:29.617Z,99.90
2019-05-03T21:50:00.298Z,99.90
2019-05-03T21:52:29.505Z,99.90
2019-05-03T21:54:59.031Z,99.90
2019-05-03T21:57:28.707Z,99.90
2019-05-03T21:59:58.176Z,99.90
2019-05-03T22:02:27.559Z,99.90
2019-05-03T22:04:56.600Z,99.90
2019-05-03T22:07:26.823Z,99.90
2019-05-03T22:09:56.368Z,99.90
2019-05-03T22:12:25.744Z,99.90
2019-05-03T22:14:59.529Z,99.90
2019-05-03T22:17:47.193Z,99.90
2019-05-03T22:20:20.640Z,99.90
2019-05-03T22:22:55.427Z,99.90
2019-05-03T22:25:26.809Z,99.90
2019-05-03T22:27:56.016Z,99.90
2019-05-03T22:30:26.842Z,99.90
2019-05-03T22:32:59.536Z,99.90
2019-05-03T22:35:29.041Z,99.90
2019-05-03T22:38:00.104Z,99.90
2019-05-03T22:40:30.015Z,99.90
2019-05-03T22:42:59.623Z,99.90
2019-05-03T22:45:28.944Z,99.90
2019-05-03T22:47:58.186Z,99.90
2019-05-03T22:50:27.552Z,99.90
2019-05-03T22:52:57.210Z,99.90
2019-05-03T22:55:27.369Z,99.90
2019-05-03T22:57:57.153Z,99.90
2019-05-03T23:00:26.528Z,99.90
2019-05-03T23:02:55.945Z,99.90
2019-05-03T23:05:25.572Z,99.90
2019-05-03T23:07:55.292Z,99.90
2019-05-03T23:10:25.650Z,99.90
2019-05-03T23:12:55.219Z,99.90
2019-05-03T23:15:24.883Z,99.90
2019-05-03T23:17:54.619Z,99.90
2019-05-03T23:20:44.837Z,99.90
2019-05-03T23:23:32.121Z,99.90
2019-05-03T23:26:04.413Z,99.90
2019-05-03T23:28:35.518Z,99.90
2019-05-03T23:31:05.773Z,99.90
2019-05-03T23:33:35.287Z,99.90
2019-05-03T23:36:04.701Z,99.90
2019-05-03T23:38:34.199Z,99.90
2019-05-03T23:41:04.837Z,99.90
2019-05-03T23:43:35.811Z,99.90
2019-05-03T23:46:05.491Z,99.90
2019-05-03T23:48:35.135Z,99.90
2019-05-03T23:51:04.664Z,99.90
2019-05-03T23:53:33.671Z,99.90
2019-05-03T23:56:09.977Z,99.90
2019-05-03T23:58:39.169Z,99.90
